LDDU/DBV METAR and TAF weather

Enter ICAO airport designator
Station Type Date Time Source
LDDU METAR 2022/01/26 20:00 UTC NOAA

LDDU 262000Z 04021G31KT 350V080 CAVOK 06/M05 Q1025 BECMG 02020KT


Station Type Date Time Source
LDDU Decoded METAR 2022/01/26 20:00 UTC NOAA

Dubrovnik / Cilipi, Croatia (LDDU) 42-34N 018-16E 165M
Jan 26, 2022 - 03:00 PM EST / 2022.01.26 2000 UTC
Wind: from the NE (040 degrees) at 24 MPH (21 KT) gusting to 36 MPH (31 KT) (direction variable):0
Visibility: greater than 7 mile(s):0
Temperature: 42 F (6 C)
Dew Point: 23 F (-5 C)
Relative Humidity: 45%
Pressure (altimeter): 30.27 in. Hg (1025 hPa)
ob: LDDU 262000Z 04021G31KT 350V080 CAVOK 06/M05 Q1025 BECMG 02020KT
cycle: 20

Station Type Date Time Source
LDDU TAF 2022/01/26 18:27 UTC NOAA

TAF TAF LDDU 261725Z 2618/2718 02014KT CAVOK TX10/2712Z TN05/2705Z PROB40
TEMPO 2618/2710 02015G25KT PROB30
TEMPO 2618/2710 VRB15G30KT
BECMG 2711/2713 26007KT
BECMG 2716/2718 02008KT

Example: see airport list